Time;durP1;ratioP1;P1;durP2;ratioP2;P2;SDS_P1;SDS_P2;PMS_P1;PMS_P2;Temp;Humidity;BMP_temperature;BMP_pressure;BME280_temperature;BME280_humidity;BME280_pressure;Samples;Min_cycle;Max_cycle;Signal;HPM_P1;HPM_P2
2024/03/19 00:03:49;;;;;;;12.00;10.00;;;;;;;0.96;100.00;99896.30;447575;1241;139693;-59
2024/03/19 00:13:52;;;;;;;12.70;11.10;;;;;;;0.94;100.00;99907.89;447373;1240;139754;-58
2024/03/19 00:23:56;;;;;;;13.60;9.50;;;;;;;0.94;100.00;99903.76;449085;1238;139730;-58
2024/03/19 00:33:59;;;;;;;13.40;11.00;;;;;;;0.92;100.00;99907.07;447227;1240;142124;-57
2024/03/19 00:44:02;;;;;;;10.10;9.00;;;;;;;0.92;100.00;99911.88;447408;1241;139229;-63
2024/03/19 00:54:07;;;;;;;13.70;11.20;;;;;;;0.91;100.00;99914.52;447479;1241;139484;-65
2024/03/19 01:04:10;;;;;;;13.60;10.90;;;;;;;0.89;100.00;99919.20;447181;1240;139833;-61
2024/03/19 01:14:14;;;;;;;12.80;10.40;;;;;;;0.86;100.00;99915.27;447969;1241;139737;-62
2024/03/19 01:24:17;;;;;;;11.00;8.90;;;;;;;0.88;100.00;99918.36;448066;1241;139185;-58
2024/03/19 01:34:20;;;;;;;13.60;9.30;;;;;;;0.86;100.00;99920.45;447100;1240;139001;-58
2024/03/19 01:44:24;;;;;;;11.40;8.00;;;;;;;0.76;100.00;99923.73;447565;1240;139204;-61
2024/03/19 01:54:27;;;;;;;10.90;8.50;;;;;;;0.60;100.00;99920.23;447440;1240;140191;-62
2024/03/19 02:04:30;;;;;;;9.60;8.40;;;;;;;0.48;100.00;99926.47;447601;1242;139089;-62
2024/03/19 02:14:34;;;;;;;9.40;8.40;;;;;;;0.43;100.00;99933.10;447448;1240;139703;-61
2024/03/19 02:24:39;;;;;;;10.50;8.30;;;;;;;0.37;100.00;99935.25;447595;1239;139436;-59
2024/03/19 02:34:42;;;;;;;11.70;8.80;;;;;;;0.23;100.00;99944.26;447664;1240;140181;-58
2024/03/19 02:44:45;;;;;;;11.40;8.90;;;;;;;0.01;100.00;99947.02;447288;1240;139220;-58
2024/03/19 02:54:49;;;;;;;10.80;9.70;;;;;;;-0.26;99.99;99960.97;447630;1238;139146;-62
2024/03/19 03:04:52;;;;;;;13.20;9.90;;;;;;;-0.31;100.00;99968.80;447324;1239;139595;-63
2024/03/19 03:14:55;;;;;;;11.40;9.80;;;;;;;-0.29;100.00;99984.25;447158;1240;140224;-58
2024/03/19 03:24:59;;;;;;;11.50;9.50;;;;;;;-0.24;100.00;99992.96;447564;1240;139202;-63
2024/03/19 03:35:03;;;;;;;13.80;9.40;;;;;;;-0.25;100.00;99991.25;447008;1240;139753;-62
2024/03/19 03:45:10;;;;;;;12.40;9.30;;;;;;;-0.26;100.00;99995.05;448552;1237;139763;-64
2024/03/19 03:55:14;;;;;;;13.90;11.20;;;;;;;-0.43;100.00;99998.36;447225;1240;139745;-63
2024/03/19 04:05:17;;;;;;;13.20;11.20;;;;;;;-0.73;100.00;100008.66;447137;1239;139571;-62
2024/03/19 04:15:20;;;;;;;16.10;10.90;;;;;;;-0.99;100.00;100018.23;447085;1240;139586;-58
2024/03/19 04:25:24;;;;;;;14.10;12.00;;;;;;;-1.03;100.00;100027.02;447280;1240;140147;-59
2024/03/19 04:35:27;;;;;;;16.80;12.60;;;;;;;-0.92;100.00;100030.86;447089;1240;139637;-61
2024/03/19 04:45:31;;;;;;;16.80;13.70;;;;;;;-0.79;100.00;100044.84;447271;1239;139865;-62
2024/03/19 04:55:35;;;;;;;13.90;11.20;;;;;;;-0.66;100.00;100048.84;447733;1240;139771;-63
2024/03/19 05:05:39;;;;;;;18.90;12.10;;;;;;;-0.71;100.00;100056.80;448076;1239;140258;-63
2024/03/19 05:15:42;;;;;;;13.80;11.30;;;;;;;-0.75;100.00;100063.02;446867;1240;140668;-59
2024/03/19 05:25:46;;;;;;;17.40;11.70;;;;;;;-0.69;100.00;100075.16;447008;1238;139610;-58
2024/03/19 05:35:49;;;;;;;17.50;13.00;;;;;;;-0.59;100.00;100087.63;448016;1239;139512;-56
2024/03/19 05:45:55;;;;;;;18.40;13.20;;;;;;;-0.51;100.00;100095.63;446966;1238;139627;-58
2024/03/19 05:56:01;;;;;;;20.00;14.20;;;;;;;-0.29;100.00;100102.10;446963;1240;139664;-58
2024/03/19 06:06:08;;;;;;;19.90;15.20;;;;;;;-0.02;100.00;100104.71;447177;1241;139538;-58
2024/03/19 06:16:11;;;;;;;21.50;16.20;;;;;;;0.15;100.00;100107.27;447171;1240;140124;-57
2024/03/19 06:26:15;;;;;;;28.00;18.70;;;;;;;0.44;100.00;100104.65;447963;1239;139439;-58
2024/03/19 06:36:18;;;;;;;28.50;20.20;;;;;;;1.00;100.00;100114.33;447213;1240;140316;-58
2024/03/19 06:46:21;;;;;;;21.20;15.60;;;;;;;2.43;100.00;100117.64;447032;1239;372711;-59
2024/03/19 06:56:25;;;;;;;19.70;15.00;;;;;;;3.81;100.00;100122.91;449068;1239;140017;-59
2024/03/19 07:06:29;;;;;;;17.90;14.90;;;;;;;5.58;100.00;100123.54;447955;1240;140565;-57
2024/03/19 07:16:32;;;;;;;16.50;13.70;;;;;;;9.18;99.88;100126.35;447288;1236;139796;-59
2024/03/19 07:26:36;;;;;;;16.10;14.80;;;;;;;16.28;93.79;100122.70;447857;1236;139103;-58
2024/03/19 07:36:40;;;;;;;16.20;15.10;;;;;;;20.98;78.18;100122.95;448365;1235;139644;-61
2024/03/19 07:46:43;;;;;;;14.80;13.30;;;;;;;24.03;68.94;100128.08;447598;1238;138895;-71
2024/03/19 07:56:46;;;;;;;13.50;12.30;;;;;;;24.50;59.00;100131.09;447523;1236;138962;-64
2024/03/19 08:06:50;;;;;;;11.60;10.60;;;;;;;21.34;54.25;100137.27;447146;1240;139485;-62
2024/03/19 08:16:53;;;;;;;16.50;15.00;;;;;;;21.93;53.16;100140.05;447754;1236;138932;-61
2024/03/19 08:26:56;;;;;;;16.60;15.30;;;;;;;25.50;51.12;100144.64;447013;1240;138838;-61
2024/03/19 08:36:59;;;;;;;15.30;13.50;;;;;;;28.44;47.40;100142.90;447097;1236;139335;-60
2024/03/19 08:47:05;;;;;;;16.90;15.40;;;;;;;29.94;43.84;100145.48;447803;1239;139228;-73
2024/03/19 08:57:10;;;;;;;14.40;13.20;;;;;;;29.98;40.20;100151.10;449402;1240;138938;-62
2024/03/19 09:07:14;;;;;;;17.70;15.90;;;;;;;28.03;36.83;100154.27;447526;1236;139661;-69
2024/03/19 09:17:17;;;;;;;17.00;14.90;;;;;;;22.25;35.49;100157.73;447497;1239;139656;-68
2024/03/19 09:27:21;;;;;;;13.60;12.30;;;;;;;16.69;37.59;100170.43;448510;1236;139242;-68
2024/03/19 09:37:26;;;;;;;12.40;11.20;;;;;;;13.51;40.11;100181.78;448001;1238;139935;-72
2024/03/19 09:47:30;;;;;;;13.00;11.60;;;;;;;11.53;42.27;100192.45;447879;1240;138652;-75
2024/03/19 09:57:34;;;;;;;10.50;9.20;;;;;;;10.23;44.87;100192.13;448021;1239;141383;-65
2024/03/19 10:07:37;;;;;;;11.00;9.80;;;;;;;9.93;46.09;100192.28;448048;1240;139194;-65
2024/03/19 10:17:41;;;;;;;12.00;9.30;;;;;;;9.51;47.36;100195.58;448367;1236;138544;-60
2024/03/19 10:27:45;;;;;;;12.00;10.80;;;;;;;9.21;48.53;100203.89;447802;1236;138924;-65
2024/03/19 10:37:50;;;;;;;12.60;11.10;;;;;;;8.66;49.46;100207.80;448379;1236;140958;-68
2024/03/19 10:47:53;;;;;;;13.40;9.70;;;;;;;7.99;50.47;100221.41;448044;1240;139428;-66
2024/03/19 10:58:01;;;;;;;11.00;8.80;;;;;;;7.25;51.73;100222.85;448207;1235;138685;-57
2024/03/19 11:08:05;;;;;;;11.80;10.20;;;;;;;7.08;53.06;100223.87;447892;1238;138407;-66
2024/03/19 11:18:18;;;;;;;10.20;7.70;;;;;;;7.06;53.51;100222.57;448154;1238;138827;-60
2024/03/19 11:28:24;;;;;;;7.90;6.80;;;;;;;6.91;53.73;100225.03;448008;1240;138657;-61
2024/03/19 11:38:29;;;;;;;8.30;6.70;;;;;;;6.90;53.98;100226.48;447891;1240;139207;-60
2024/03/19 11:48:34;;;;;;;10.10;8.80;;;;;;;6.71;54.14;100226.51;448542;1236;138645;-59
2024/03/19 11:58:39;;;;;;;11.90;10.00;;;;;;;6.56;54.77;100220.81;448231;1239;138474;-63
2024/03/19 12:08:44;;;;;;;14.70;10.40;;;;;;;6.21;54.85;100221.00;448197;1240;139213;-67
2024/03/19 12:18:47;;;;;;;11.30;9.40;;;;;;;6.22;55.81;100216.64;447815;1235;139048;-61
2024/03/19 12:28:50;;;;;;;15.50;13.00;;;;;;;6.37;55.88;100207.77;448084;1239;139144;-61
2024/03/19 12:38:54;;;;;;;10.80;9.80;;;;;;;6.34;55.37;100202.29;447404;1236;138972;-59
2024/03/19 12:48:57;;;;;;;11.40;9.80;;;;;;;5.68;55.41;100199.15;447617;1239;138402;-59
2024/03/19 12:59:00;;;;;;;11.30;10.20;;;;;;;5.09;56.65;100191.52;448654;1240;138503;-61
2024/03/19 13:09:04;;;;;;;11.20;9.10;;;;;;;4.85;57.39;100180.65;448138;1239;139339;-58
2024/03/19 13:19:09;;;;;;;10.60;9.30;;;;;;;4.76;58.15;100172.58;447954;1240;138355;-58
2024/03/19 13:29:12;;;;;;;11.10;8.40;;;;;;;4.94;58.40;100161.11;447999;1238;138390;-57
2024/03/19 13:39:16;;;;;;;12.40;10.00;;;;;;;5.04;58.49;100142.59;447328;1241;138305;-60
2024/03/19 13:49:32;;;;;;;15.00;9.10;;;;;;;4.95;58.82;100142.34;447353;1240;138529;-57
2024/03/19 13:59:35;;;;;;;9.60;8.00;;;;;;;4.92;58.97;100141.05;447563;1236;138918;-57
2024/03/19 14:09:38;;;;;;;14.60;8.80;;;;;;;4.84;59.28;100142.02;447907;1236;138825;-59
2024/03/19 14:19:42;;;;;;;12.50;9.00;;;;;;;4.98;59.66;100144.66;447105;1240;138954;-61
2024/03/19 14:29:46;;;;;;;9.70;7.90;;;;;;;5.04;59.70;100134.44;447922;1240;138334;-61
2024/03/19 14:39:49;;;;;;;11.20;8.40;;;;;;;4.90;59.69;100141.11;447728;1240;138243;-60
2024/03/19 14:49:53;;;;;;;8.50;7.10;;;;;;;4.92;59.99;100135.33;448622;1236;139367;-66
2024/03/19 14:59:56;;;;;;;9.50;7.50;;;;;;;5.26;60.18;100131.62;450932;1239;138279;-65
2024/03/19 15:10:01;;;;;;;9.10;7.60;;;;;;;5.63;59.98;100136.64;448179;1240;138147;-62
2024/03/19 15:20:13;;;;;;;7.70;6.70;;;;;;;5.82;59.32;100132.31;448578;1240;139888;-64
2024/03/19 15:30:18;;;;;;;8.60;7.60;;;;;;;5.64;59.03;100144.59;448386;1240;138230;-58
2024/03/19 15:40:21;;;;;;;9.30;7.60;;;;;;;5.27;59.43;100143.92;449073;1239;138917;-62
2024/03/19 15:50:25;;;;;;;8.90;7.00;;;;;;;4.93;59.90;100147.08;449100;1240;138693;-61
2024/03/19 16:00:30;;;;;;;9.90;8.50;;;;;;;4.63;60.38;100144.02;449693;1236;137361;-66
2024/03/19 16:10:33;;;;;;;11.20;7.10;;;;;;;4.37;60.81;100147.20;450262;1240;138989;-65
2024/03/19 16:20:39;;;;;;;11.70;8.60;;;;;;;4.10;61.42;100153.70;449180;1240;138784;-60
2024/03/19 16:30:43;;;;;;;16.00;8.50;;;;;;;3.82;62.71;100157.08;449624;1236;139532;-65
2024/03/19 16:40:46;;;;;;;12.00;9.30;;;;;;;3.53;63.16;100166.29;449348;1240;138379;-65
2024/03/19 16:50:52;;;;;;;11.80;8.00;;;;;;;3.24;63.59;100168.77;449009;1240;138342;-64
2024/03/19 17:00:56;;;;;;;9.30;7.30;;;;;;;2.93;64.28;100169.29;448925;1239;138486;-60
2024/03/19 17:11:00;;;;;;;12.30;9.60;;;;;;;2.64;65.15;100177.91;448751;1240;138784;-57
2024/03/19 17:21:04;;;;;;;11.70;9.00;;;;;;;2.38;65.93;100189.34;450756;1236;139603;-58
2024/03/19 17:31:07;;;;;;;16.90;11.40;;;;;;;2.09;66.51;100194.21;449479;1236;140171;-58
2024/03/19 17:41:11;;;;;;;28.60;15.60;;;;;;;1.85;67.65;100203.48;449221;1235;139224;-60
2024/03/19 17:51:14;;;;;;;25.60;17.90;;;;;;;1.59;68.51;100212.03;448778;1240;139333;-60
2024/03/19 18:01:19;;;;;;;30.30;16.60;;;;;;;1.34;69.65;100221.08;449836;1239;139335;-60
2024/03/19 18:11:23;;;;;;;30.70;16.00;;;;;;;1.07;70.55;100226.98;448795;1236;139772;-60
2024/03/19 18:21:26;;;;;;;29.50;15.00;;;;;;;0.81;71.39;100225.98;448464;1241;139318;-62
2024/03/19 18:31:30;;;;;;;27.40;14.90;;;;;;;0.55;72.30;100226.46;448641;1241;139891;-59
2024/03/19 18:41:34;;;;;;;27.30;15.80;;;;;;;0.33;72.89;100222.44;448391;1239;237649;-61
2024/03/19 18:51:38;;;;;;;28.00;16.80;;;;;;;0.11;73.49;100215.78;448901;1236;139207;-60
2024/03/19 19:01:41;;;;;;;27.70;17.40;;;;;;;-0.10;74.23;100220.98;449003;1239;140164;-59
2024/03/19 19:11:45;;;;;;;34.70;19.80;;;;;;;-0.30;75.10;100221.86;447762;1239;139532;-63
2024/03/19 19:21:48;;;;;;;36.90;21.00;;;;;;;-0.49;76.00;100232.69;447783;1239;140238;-60
2024/03/19 19:31:52;;;;;;;58.60;25.70;;;;;;;-0.70;76.42;100237.33;447513;1241;140062;-62
2024/03/19 19:41:55;;;;;;;46.10;25.90;;;;;;;-0.90;77.35;100240.39;447515;1237;139333;-60
2024/03/19 19:51:58;;;;;;;43.20;25.20;;;;;;;-1.09;77.89;100238.26;447878;1241;139600;-60
2024/03/19 20:02:38;;;;;;;44.20;26.50;;;;;;;-1.23;78.50;100234.73;423620;1292;600320;-60
2024/03/19 20:12:44;;;;;;;42.30;25.90;;;;;;;-1.40;78.93;100238.94;432832;1262;5108551;-58
2024/03/19 20:22:51;;;;;;;51.30;29.90;;;;;;;-1.55;79.82;100236.58;436619;1259;138810;-58
2024/03/19 20:32:56;;;;;;;112.40;68.30;;;;;;;-1.68;80.21;100239.04;435924;1261;139308;-58
2024/03/19 20:43:02;;;;;;;91.00;54.70;;;;;;;-1.80;81.21;100243.36;435223;1260;139380;-56
2024/03/19 20:53:08;;;;;;;116.60;69.30;;;;;;;-1.90;81.59;100250.26;436007;1259;139277;-58
2024/03/19 21:03:13;;;;;;;137.30;83.80;;;;;;;-2.00;82.49;100253.02;435232;1265;139006;-56
2024/03/19 21:13:19;;;;;;;119.20;74.20;;;;;;;-2.10;83.16;100249.44;435283;1260;139619;-56
2024/03/19 21:23:24;;;;;;;108.30;67.70;;;;;;;-2.17;83.48;100245.84;435939;1266;140122;-56
2024/03/19 21:33:30;;;;;;;116.00;78.30;;;;;;;-2.28;83.82;100239.16;435607;1265;138947;-56
2024/03/19 21:43:36;;;;;;;124.70;87.20;;;;;;;-2.38;84.25;100239.17;435238;1265;140181;-57
2024/03/19 21:53:42;;;;;;;141.30;95.00;;;;;;;-2.46;84.47;100239.84;435403;1263;139037;-57
2024/03/19 22:03:48;;;;;;;130.70;88.80;;;;;;;-2.53;85.16;100234.88;435462;1265;139516;-61
2024/03/19 22:13:53;;;;;;;142.60;93.80;;;;;;;-2.62;85.48;100224.93;435198;1265;139642;-61
2024/03/19 22:23:59;;;;;;;136.80;96.20;;;;;;;-2.70;85.87;100215.67;436836;1259;138976;-61
2024/03/19 22:34:04;;;;;;;144.90;97.80;;;;;;;-2.77;86.33;100212.92;436516;1259;139473;-60
2024/03/19 22:44:10;;;;;;;149.90;101.90;;;;;;;-2.87;86.67;100207.09;436329;1257;140082;-60
2024/03/19 22:54:16;;;;;;;148.90;101.80;;;;;;;-2.93;87.43;100208.46;437032;1257;139369;-61
2024/03/19 23:04:22;;;;;;;150.80;100.40;;;;;;;-3.00;87.97;100207.77;436921;1259;139992;-59
2024/03/19 23:14:27;;;;;;;152.30;101.10;;;;;;;-3.06;88.35;100202.96;436938;1257;139524;-53
2024/03/19 23:24:33;;;;;;;155.00;100.50;;;;;;;-3.15;88.43;100212.36;437223;1259;140752;-51
2024/03/19 23:34:39;;;;;;;153.30;98.70;;;;;;;-3.24;88.79;100211.31;437303;1257;140401;-52
2024/03/19 23:44:46;;;;;;;136.60;95.40;;;;;;;-3.33;88.98;100206.65;436439;1260;139550;-57
2024/03/19 23:54:52;;;;;;;147.30;101.70;;;;;;;-3.43;89.13;100211.76;437315;1260;139860;-58
